createdAt,value
2022-10-21T00:01:50.209Z,8.70
2022-10-21T00:04:16.975Z,8.70
2022-10-21T00:06:43.688Z,8.70
2022-10-21T00:09:10.490Z,8.70
2022-10-21T00:11:37.325Z,8.70
2022-10-21T00:14:04.325Z,8.70
2022-10-21T00:19:17.710Z,8.70
2022-10-21T00:24:31.089Z,8.70
2022-10-21T00:26:57.818Z,8.80
2022-10-21T00:29:24.544Z,8.70
2022-10-21T00:31:53.823Z,8.80
2022-10-21T00:37:08.276Z,8.70
2022-10-21T00:42:23.213Z,8.60
2022-10-21T00:45:05.031Z,8.60
2022-10-21T00:47:39.491Z,8.60
2022-10-21T00:52:59.800Z,8.60
2022-10-21T00:58:18.156Z,8.60
2022-10-21T01:03:32.389Z,8.50
2022-10-21T01:08:50.388Z,8.60
2022-10-21T01:11:19.526Z,8.50
2022-10-21T01:14:05.158Z,8.50
2022-10-21T01:16:58.763Z,8.50
2022-10-21T01:19:56.120Z,8.40
2022-10-21T01:22:30.231Z,8.40
2022-10-21T01:25:54.151Z,8.40
2022-10-21T01:28:37.005Z,8.30
2022-10-21T01:37:38.955Z,8.20
2022-10-21T01:40:16.826Z,8.30
2022-10-21T01:42:52.658Z,8.20
2022-10-21T01:45:31.456Z,8.20
2022-10-21T01:48:07.530Z,8.20
2022-10-21T01:50:41.854Z,8.10
2022-10-21T01:53:12.560Z,8.20
2022-10-21T01:58:32.760Z,8.10
2022-10-21T02:03:54.907Z,8.10
2022-10-21T02:06:21.736Z,8.10
2022-10-21T02:08:48.641Z,8.20
2022-10-21T02:11:15.888Z,8.10
2022-10-21T02:13:52.008Z,8.20
2022-10-21T02:16:24.089Z,8.00
2022-10-21T02:21:37.673Z,8.10
2022-10-21T02:24:35.354Z,8.10
2022-10-21T02:27:02.222Z,8.10
2022-10-21T02:29:39.218Z,8.20
2022-10-21T02:32:25.585Z,8.10
2022-10-21T02:35:22.832Z,8.20
2022-10-21T02:38:19.398Z,8.10
2022-10-21T02:40:50.564Z,8.10
2022-10-21T02:43:24.433Z,8.10
2022-10-21T02:45:54.116Z,8.10
2022-10-21T02:51:08.498Z,8.10
2022-10-21T02:56:22.912Z,8.20
2022-10-21T03:01:36.335Z,8.20
2022-10-21T03:06:49.735Z,8.20
2022-10-21T03:09:16.450Z,8.20
2022-10-21T03:11:43.181Z,8.20
2022-10-21T03:14:09.911Z,8.20
2022-10-21T03:16:36.596Z,8.20
2022-10-21T03:19:03.320Z,8.20
2022-10-21T03:21:30.071Z,8.20
2022-10-21T03:23:56.795Z,8.20
2022-10-21T03:26:23.485Z,8.00
2022-10-21T03:28:50.197Z,8.10
2022-10-21T03:31:16.946Z,8.10
2022-10-21T03:33:43.722Z,8.10
2022-10-21T03:36:10.435Z,8.10
2022-10-21T03:38:37.142Z,8.10
2022-10-21T03:41:03.959Z,8.00
2022-10-21T03:43:30.657Z,8.10
2022-10-21T03:45:57.394Z,8.00
2022-10-21T03:48:24.089Z,8.10
2022-10-21T03:50:50.794Z,8.10
2022-10-21T03:53:37.929Z,8.10
2022-10-21T03:56:04.447Z,8.10
2022-10-21T03:58:31.168Z,8.10
2022-10-21T04:00:57.887Z,8.10
2022-10-21T04:06:11.250Z,8.00
2022-10-21T04:11:24.689Z,8.10
2022-10-21T04:13:51.425Z,8.10
2022-10-21T04:16:20.877Z,8.10
2022-10-21T04:18:47.769Z,8.10
2022-10-21T04:21:14.923Z,8.10
2022-10-21T04:23:42.257Z,8.00
2022-10-21T04:26:09.318Z,8.10
2022-10-21T04:28:36.078Z,8.00
2022-10-21T04:31:02.895Z,8.00
2022-10-21T04:33:29.687Z,8.00
2022-10-21T04:35:57.130Z,8.00
2022-10-21T04:38:23.835Z,8.10
2022-10-21T04:41:01.364Z,8.00
2022-10-21T04:43:28.804Z,8.00
2022-10-21T04:45:55.883Z,7.90
2022-10-21T04:48:23.024Z,8.00
2022-10-21T04:50:51.579Z,7.90
2022-10-21T04:53:18.584Z,7.90
2022-10-21T04:55:45.517Z,7.90
2022-10-21T04:58:12.527Z,7.90
2022-10-21T05:00:39.269Z,7.90
2022-10-21T05:03:06.016Z,7.80
2022-10-21T05:05:32.887Z,7.80
2022-10-21T05:10:46.469Z,7.90
2022-10-21T05:16:01.873Z,7.90
2022-10-21T05:18:28.704Z,7.90
2022-10-21T05:20:56.392Z,7.90
2022-10-21T05:23:24.035Z,7.90
2022-10-21T05:25:50.761Z,7.80
2022-10-21T05:28:18.097Z,7.90
2022-10-21T05:30:44.828Z,7.90
2022-10-21T05:33:11.590Z,7.90
2022-10-21T05:35:38.370Z,7.90
2022-10-21T05:38:05.172Z,7.90
2022-10-21T05:40:33.077Z,7.90
2022-10-21T05:45:46.477Z,7.90
2022-10-21T05:50:59.851Z,7.90
2022-10-21T05:56:13.371Z,7.90
2022-10-21T05:58:40.088Z,7.90
2022-10-21T06:01:06.857Z,7.90
2022-10-21T06:03:34.009Z,8.00
2022-10-21T06:08:50.495Z,8.00
2022-10-21T06:14:06.070Z,8.00
2022-10-21T06:16:32.843Z,8.00
2022-10-21T06:18:59.540Z,8.00
2022-10-21T06:21:26.316Z,8.10
2022-10-21T06:23:54.033Z,8.00
2022-10-21T06:26:21.083Z,8.10
2022-10-21T06:28:47.814Z,8.10
2022-10-21T06:31:17.077Z,8.20
2022-10-21T06:33:44.056Z,8.20
2022-10-21T06:36:10.836Z,8.30
2022-10-21T06:38:37.587Z,8.30
2022-10-21T06:41:09.265Z,8.40
2022-10-21T06:43:39.528Z,8.40
2022-10-21T06:48:58.724Z,8.50
2022-10-21T06:54:12.329Z,8.50
2022-10-21T06:56:39.576Z,8.50
2022-10-21T06:59:06.317Z,8.50
2022-10-21T07:01:47.974Z,8.60
2022-10-21T07:07:06.580Z,8.60
2022-10-21T07:09:33.507Z,8.60
2022-10-21T07:12:01.439Z,8.70
2022-10-21T07:14:28.326Z,8.80
2022-10-21T07:16:55.055Z,8.80
2022-10-21T07:19:21.771Z,9.10
2022-10-21T07:21:48.535Z,9.30
2022-10-21T07:24:18.748Z,9.40
2022-10-21T07:26:48.385Z,9.60
2022-10-21T07:29:15.151Z,9.60
2022-10-21T07:31:41.884Z,10.00
2022-10-21T07:34:09.252Z,9.80
2022-10-21T07:36:38.989Z,9.90
2022-10-21T07:39:09.482Z,10.00
2022-10-21T07:44:26.741Z,10.40
2022-10-21T07:49:40.868Z,11.00
2022-10-21T07:54:57.775Z,11.80
2022-10-21T07:57:24.497Z,12.40
2022-10-21T07:59:51.226Z,12.90
2022-10-21T08:02:17.968Z,12.70
2022-10-21T08:04:44.706Z,12.60
2022-10-21T08:07:13.219Z,12.90
2022-10-21T08:09:40.760Z,13.20
2022-10-21T08:12:10.348Z,13.40
2022-10-21T08:14:40.225Z,13.10
2022-10-21T08:17:07.010Z,12.80
2022-10-21T08:19:33.743Z,12.40
2022-10-21T08:22:00.469Z,11.90
2022-10-21T08:24:28.052Z,11.20
2022-10-21T08:26:55.041Z,10.80
2022-10-21T08:29:21.767Z,10.90
2022-10-21T08:31:48.526Z,10.70
2022-10-21T08:34:15.273Z,10.70
2022-10-21T08:36:42.092Z,10.60
2022-10-21T08:39:09.436Z,10.50
2022-10-21T08:42:07.310Z,10.60
2022-10-21T08:44:54.127Z,10.80
2022-10-21T08:47:39.187Z,10.80
2022-10-21T08:53:05.083Z,10.80
2022-10-21T08:55:43.604Z,10.80
2022-10-21T08:58:21.097Z,10.90
2022-10-21T09:00:54.699Z,10.90
2022-10-21T09:03:41.230Z,10.90
2022-10-21T09:06:23.866Z,10.80
2022-10-21T09:12:31.200Z,10.70
2022-10-21T09:15:16.676Z,10.70
2022-10-21T09:18:13.710Z,10.80
2022-10-21T09:20:59.504Z,10.80
2022-10-21T09:26:51.059Z,10.80
2022-10-21T09:29:50.241Z,10.90
2022-10-21T09:32:31.588Z,10.90
2022-10-21T09:35:19.734Z,11.00
2022-10-21T09:37:51.975Z,11.00
2022-10-21T09:40:21.787Z,11.10
2022-10-21T09:42:57.018Z,11.00
2022-10-21T09:45:41.513Z,11.00
2022-10-21T09:48:20.130Z,11.00
2022-10-21T09:50:50.475Z,11.20
2022-10-21T09:56:24.928Z,11.30
2022-10-21T09:59:10.766Z,11.40
2022-10-21T10:01:39.981Z,11.40
2022-10-21T10:04:10.737Z,11.70
2022-10-21T10:06:44.813Z,11.90
2022-10-21T10:09:16.349Z,12.30
2022-10-21T10:12:06.052Z,12.60
2022-10-21T10:17:23.920Z,12.90
2022-10-21T10:20:05.889Z,12.90
2022-10-21T10:22:35.039Z,13.40
2022-10-21T10:25:15.817Z,13.70
2022-10-21T10:27:48.451Z,13.70
2022-10-21T10:30:16.234Z,13.70
2022-10-21T10:32:44.086Z,13.40
2022-10-21T10:35:29.254Z,13.40
2022-10-21T10:37:57.331Z,13.60
2022-10-21T10:40:32.120Z,13.50
2022-10-21T10:43:06.009Z,13.60
2022-10-21T10:45:33.041Z,13.60
2022-10-21T10:48:01.739Z,13.20
2022-10-21T10:50:45.119Z,13.20
2022-10-21T10:57:01.603Z,13.20
2022-10-21T10:59:45.090Z,13.40
2022-10-21T11:02:11.745Z,13.50
2022-10-21T11:04:38.410Z,13.40
2022-10-21T11:07:14.697Z,13.30
2022-10-21T11:09:41.814Z,13.40
2022-10-21T11:14:50.284Z,13.50
2022-10-21T11:17:20.955Z,13.60
2022-10-21T11:20:10.512Z,13.70
2022-10-21T11:22:37.229Z,13.60
2022-10-21T11:25:42.028Z,13.50
2022-10-21T11:28:33.847Z,13.50
2022-10-21T11:31:07.281Z,13.10
2022-10-21T11:34:01.334Z,13.30
2022-10-21T11:36:47.022Z,13.30
2022-10-21T11:39:26.220Z,13.20
2022-10-21T11:42:07.096Z,13.30
2022-10-21T11:47:55.701Z,13.30
2022-10-21T11:50:41.063Z,13.30
2022-10-21T11:53:22.726Z,13.30
2022-10-21T11:56:13.853Z,13.50
2022-10-21T11:58:59.906Z,13.60
2022-10-21T12:01:41.738Z,13.30
2022-10-21T12:04:24.288Z,13.60
2022-10-21T12:13:19.970Z,14.40
2022-10-21T12:15:54.116Z,14.30
2022-10-21T12:18:23.195Z,14.50
2022-10-21T12:20:53.345Z,14.50
2022-10-21T12:23:26.569Z,14.50
2022-10-21T12:26:18.201Z,14.20
2022-10-21T12:28:58.669Z,14.40
2022-10-21T12:34:11.945Z,14.20
2022-10-21T12:36:40.661Z,14.40
2022-10-21T12:39:18.121Z,14.50
2022-10-21T12:41:48.369Z,14.70
2022-10-21T12:46:54.290Z,14.90
2022-10-21T12:49:25.729Z,15.00
2022-10-21T12:52:05.195Z,15.30
2022-10-21T12:54:37.883Z,15.30
2022-10-21T12:57:21.819Z,15.00
2022-10-21T12:59:48.788Z,15.20
2022-10-21T13:05:08.778Z,15.10
2022-10-21T13:10:25.662Z,15.10
2022-10-21T13:13:28.274Z,15.10
2022-10-21T13:15:55.468Z,15.00
2022-10-21T13:18:50.244Z,14.80
2022-10-21T13:21:37.015Z,14.90
2022-10-21T13:24:11.987Z,14.80
2022-10-21T13:26:50.968Z,14.80
2022-10-21T13:29:38.544Z,14.70
2022-10-21T13:32:14.362Z,14.70
2022-10-21T13:34:48.680Z,14.70
2022-10-21T13:40:19.320Z,14.50
2022-10-21T13:42:57.306Z,14.40
2022-10-21T13:45:56.270Z,14.40
2022-10-21T13:48:26.068Z,14.50
2022-10-21T13:50:53.238Z,14.50
2022-10-21T13:53:31.685Z,14.50
2022-10-21T13:55:58.388Z,14.50
2022-10-21T14:00:57.916Z,14.20
2022-10-21T14:03:25.845Z,14.10
2022-10-21T14:06:00.911Z,14.20
2022-10-21T14:08:34.648Z,14.20
2022-10-21T14:13:52.008Z,14.10
2022-10-21T14:16:39.077Z,14.10
2022-10-21T14:19:27.898Z,14.20
2022-10-21T14:21:57.229Z,14.20
2022-10-21T14:24:35.924Z,14.20
2022-10-21T14:27:03.906Z,14.30
2022-10-21T14:29:34.733Z,14.20
2022-10-21T14:32:03.154Z,14.20
2022-10-21T14:37:07.869Z,14.20
2022-10-21T14:39:37.997Z,14.20
2022-10-21T14:42:09.229Z,14.20
2022-10-21T14:44:36.066Z,14.20
2022-10-21T14:47:02.921Z,14.20
2022-10-21T14:49:45.571Z,14.10
2022-10-21T14:52:36.554Z,14.10
2022-10-21T14:55:09.989Z,14.10
2022-10-21T14:57:52.167Z,14.10
2022-10-21T15:00:30.181Z,14.10
2022-10-21T15:02:58.166Z,14.00
2022-10-21T15:05:46.685Z,13.90
2022-10-21T15:11:08.065Z,13.90
2022-10-21T15:16:25.836Z,13.90
2022-10-21T15:21:31.711Z,13.70
2022-10-21T15:23:59.550Z,13.60
2022-10-21T15:26:28.849Z,13.60
2022-10-21T15:28:56.428Z,13.60
2022-10-21T15:31:28.064Z,13.60
2022-10-21T15:33:56.378Z,13.50
2022-10-21T15:36:23.553Z,13.50
2022-10-21T15:38:50.331Z,13.40
2022-10-21T15:41:20.511Z,13.40
2022-10-21T15:43:56.549Z,13.40
2022-10-21T15:46:24.024Z,13.30
2022-10-21T15:48:50.763Z,13.20
2022-10-21T15:51:17.521Z,13.20
2022-10-21T15:53:44.683Z,13.20
2022-10-21T15:56:19.730Z,13.10
2022-10-21T15:58:47.748Z,13.20
2022-10-21T16:01:17.104Z,13.00
2022-10-21T16:03:44.970Z,13.00
2022-10-21T16:06:16.070Z,12.90
2022-10-21T16:08:42.972Z,12.90
2022-10-21T16:11:15.246Z,12.80
2022-10-21T16:13:45.905Z,12.80
2022-10-21T16:19:09.339Z,12.80
2022-10-21T16:24:02.790Z,12.70
2022-10-21T16:26:30.393Z,12.60
2022-10-21T16:28:57.904Z,12.60
2022-10-21T16:31:26.934Z,12.70
2022-10-21T16:33:54.310Z,12.70
2022-10-21T16:38:53.381Z,12.70
2022-10-21T16:41:23.542Z,12.70
2022-10-21T16:46:40.801Z,12.70
2022-10-21T16:49:13.458Z,12.80
2022-10-21T16:51:42.167Z,12.70
2022-10-21T16:54:09.968Z,12.70
2022-10-21T16:59:25.559Z,12.70
2022-10-21T17:01:53.173Z,12.70
2022-10-21T17:07:07.757Z,12.70
2022-10-21T17:12:21.158Z,12.70
2022-10-21T17:17:34.649Z,12.80
2022-10-21T17:20:01.354Z,12.80
2022-10-21T17:22:28.441Z,12.80
2022-10-21T17:24:55.246Z,12.90
2022-10-21T17:27:22.106Z,12.90
2022-10-21T17:29:49.067Z,12.90
2022-10-21T17:32:15.810Z,12.90
2022-10-21T17:34:42.659Z,13.00
2022-10-21T17:37:10.877Z,13.00
2022-10-21T17:39:38.293Z,13.00
2022-10-21T17:42:05.137Z,13.00
2022-10-21T17:44:32.346Z,13.00
2022-10-21T17:46:59.121Z,13.00
2022-10-21T17:49:26.431Z,13.10
2022-10-21T17:51:53.431Z,13.10
2022-10-21T17:54:24.124Z,13.10
2022-10-21T17:59:41.449Z,13.10
2022-10-21T18:02:08.153Z,13.10
2022-10-21T18:04:34.874Z,13.10
2022-10-21T18:07:02.243Z,13.10
2022-10-21T18:09:29.006Z,13.10
2022-10-21T18:11:55.738Z,13.10
2022-10-21T18:14:22.470Z,13.20
2022-10-21T18:16:49.264Z,13.10
2022-10-21T18:22:04.433Z,13.10
2022-10-21T18:27:17.821Z,13.10
2022-10-21T18:32:31.172Z,13.00
2022-10-21T18:34:57.955Z,13.10
2022-10-21T18:37:24.900Z,13.10
2022-10-21T18:39:55.358Z,13.10
2022-10-21T18:42:24.967Z,13.10
2022-10-21T18:44:52.264Z,13.10
2022-10-21T18:47:19.018Z,13.10
2022-10-21T18:49:45.755Z,13.10
2022-10-21T18:52:12.639Z,13.10
2022-10-21T18:54:39.440Z,13.10
2022-10-21T18:57:06.179Z,13.10
2022-10-21T18:59:32.926Z,13.10
2022-10-21T19:01:59.703Z,13.10
2022-10-21T19:04:26.414Z,13.10
2022-10-21T19:06:53.209Z,13.10
2022-10-21T19:09:23.087Z,13.00
2022-10-21T19:11:50.138Z,13.00
2022-10-21T19:14:17.419Z,12.90
2022-10-21T19:16:45.396Z,12.90
2022-10-21T19:19:13.072Z,12.90
2022-10-21T19:21:40.101Z,12.90
2022-10-21T19:24:07.208Z,12.90
2022-10-21T19:26:36.317Z,12.90
2022-10-21T19:29:10.672Z,12.90
2022-10-21T19:31:38.506Z,12.90
2022-10-21T19:36:53.427Z,12.90
2022-10-21T19:39:20.544Z,12.90
2022-10-21T19:41:47.715Z,12.90
2022-10-21T19:44:14.749Z,12.90
2022-10-21T19:46:41.536Z,12.90
2022-10-21T19:49:09.160Z,12.90
2022-10-21T19:51:37.275Z,12.90
2022-10-21T19:54:05.930Z,12.90
2022-10-21T19:56:34.477Z,12.90
2022-10-21T19:59:02.125Z,12.90
2022-10-21T20:01:28.991Z,12.90
2022-10-21T20:03:55.963Z,12.80
2022-10-21T20:06:29.150Z,12.80
2022-10-21T20:08:58.509Z,12.80
2022-10-21T20:14:13.534Z,12.80
2022-10-21T20:19:28.350Z,12.80
2022-10-21T20:21:55.098Z,12.80
2022-10-21T20:24:21.831Z,12.70
2022-10-21T20:26:48.574Z,12.80
2022-10-21T20:29:15.628Z,12.80
2022-10-21T20:31:42.404Z,12.80
2022-10-21T20:34:14.661Z,12.80
2022-10-21T20:36:41.529Z,12.90
2022-10-21T20:39:08.484Z,12.90
2022-10-21T20:41:35.795Z,12.90
2022-10-21T20:44:07.871Z,12.90
2022-10-21T20:46:35.746Z,12.90
2022-10-21T20:49:05.488Z,12.80
2022-10-21T20:51:34.242Z,12.80
2022-10-21T20:54:08.093Z,12.70
2022-10-21T20:56:37.771Z,12.80
2022-10-21T20:59:05.879Z,12.80
2022-10-21T21:01:35.967Z,12.90
2022-10-21T21:04:07.064Z,12.90
2022-10-21T21:12:04.317Z,13.00
2022-10-21T21:14:31.750Z,13.10
2022-10-21T21:16:58.474Z,13.10
2022-10-21T21:19:25.198Z,13.10
2022-10-21T21:21:52.213Z,13.20
2022-10-21T21:24:18.934Z,13.20
2022-10-21T21:26:46.000Z,13.10
2022-10-21T21:29:13.238Z,13.10
2022-10-21T21:31:40.764Z,13.20
2022-10-21T21:34:08.631Z,13.10
2022-10-21T21:36:35.616Z,13.10
2022-10-21T21:39:02.796Z,13.20
2022-10-21T21:41:29.655Z,13.20
2022-10-21T21:43:56.425Z,13.20
2022-10-21T21:46:24.163Z,13.20
2022-10-21T21:48:54.872Z,13.20
2022-10-21T21:51:23.569Z,13.20
2022-10-21T21:53:50.519Z,13.10
2022-10-21T21:56:18.528Z,13.10
2022-10-21T21:58:46.956Z,13.10
2022-10-21T22:01:19.981Z,13.10
2022-10-21T22:03:48.011Z,13.10
2022-10-21T22:06:15.741Z,13.20
2022-10-21T22:08:42.951Z,13.10
2022-10-21T22:11:12.362Z,13.20
2022-10-21T22:13:40.007Z,13.20
2022-10-21T22:16:08.860Z,13.20
2022-10-21T22:18:35.948Z,13.30
2022-10-21T22:23:55.616Z,13.30
2022-10-21T22:26:22.401Z,13.30
2022-10-21T22:28:49.311Z,13.30
2022-10-21T22:31:17.712Z,13.40
2022-10-21T22:33:45.394Z,13.40
2022-10-21T22:36:12.148Z,13.40
2022-10-21T22:38:38.927Z,13.50
2022-10-21T22:41:08.580Z,13.50
2022-10-21T22:43:39.114Z,13.50
2022-10-21T22:46:21.429Z,13.50
2022-10-21T22:51:39.314Z,13.50
2022-10-21T22:56:52.773Z,13.40
2022-10-21T23:02:06.618Z,13.50
2022-10-21T23:04:33.351Z,13.50
2022-10-21T23:07:00.084Z,13.50
2022-10-21T23:09:26.832Z,13.50
2022-10-21T23:11:53.529Z,13.50
2022-10-21T23:16:47.111Z,13.50
2022-10-21T23:19:13.859Z,13.50
2022-10-21T23:24:07.843Z,13.50
2022-10-21T23:26:35.132Z,13.50
2022-10-21T23:29:02.057Z,13.60
2022-10-21T23:31:28.756Z,13.60
2022-10-21T23:33:55.500Z,13.60
2022-10-21T23:39:11.056Z,13.50
2022-10-21T23:44:24.581Z,13.60
2022-10-21T23:49:38.002Z,13.60
2022-10-21T23:54:51.476Z,13.60
2022-10-21T23:57:18.226Z,13.60
2022-10-21T23:59:44.971Z,13.60
